createdAt,value
2023-03-15T00:01:07.358Z,94525.00
2023-03-15T00:03:37.198Z,94521.78
2023-03-15T00:06:04.523Z,94518.84
2023-03-15T00:08:33.177Z,94525.06
2023-03-15T00:11:00.480Z,94522.31
2023-03-15T00:13:27.437Z,94519.22
2023-03-15T00:15:58.309Z,94530.78
2023-03-15T00:18:25.227Z,94530.47
2023-03-15T00:20:51.980Z,94531.28
2023-03-15T00:23:18.852Z,94543.91
2023-03-15T00:25:46.773Z,94552.19
2023-03-15T00:28:14.538Z,94540.75
2023-03-15T00:30:41.157Z,94549.63
2023-03-15T00:33:07.947Z,94543.91
2023-03-15T00:35:40.802Z,94537.53
2023-03-15T00:38:07.605Z,94541.38
2023-03-15T00:40:34.179Z,94530.22
2023-03-15T00:43:00.688Z,94539.31
2023-03-15T00:45:27.221Z,94538.41
2023-03-15T00:47:54.672Z,94537.78
2023-03-15T00:50:23.038Z,94539.56
2023-03-15T00:52:49.994Z,94552.75
2023-03-15T00:55:19.789Z,94569.13
2023-03-15T00:57:47.875Z,94593.72
2023-03-15T01:00:20.501Z,94624.31
2023-03-15T01:02:47.418Z,94638.59
2023-03-15T01:05:14.239Z,94630.94
2023-03-15T01:07:41.215Z,94629.03
2023-03-15T01:10:08.570Z,94628.66
2023-03-15T01:12:35.614Z,94616.75
2023-03-15T01:15:04.530Z,94609.81
2023-03-15T01:17:31.235Z,94592.31
2023-03-15T01:19:59.303Z,94596.81
2023-03-15T01:22:26.385Z,94589.03
2023-03-15T01:24:53.033Z,94586.69
2023-03-15T01:27:19.581Z,94593.50
2023-03-15T01:29:46.154Z,94589.66
2023-03-15T01:32:14.340Z,94573.72
2023-03-15T01:34:43.134Z,94567.78
2023-03-15T01:37:10.471Z,94569.75
2023-03-15T01:39:42.068Z,94595.97
2023-03-15T01:42:10.416Z,94599.66
2023-03-15T01:44:53.926Z,94592.53
2023-03-15T01:47:21.090Z,94586.38
2023-03-15T01:49:55.034Z,94587.63
2023-03-15T01:52:27.364Z,94586.34
2023-03-15T01:55:13.324Z,94591.84
2023-03-15T01:57:56.662Z,94606.75
2023-03-15T02:00:25.906Z,94617.53
2023-03-15T02:03:03.778Z,94617.56
2023-03-15T02:05:35.458Z,94617.84
2023-03-15T02:08:07.222Z,94618.34
2023-03-15T02:10:43.292Z,94612.81
2023-03-15T02:13:13.115Z,94605.03
2023-03-15T02:15:46.512Z,94611.97
2023-03-15T02:18:18.059Z,94624.69
2023-03-15T02:20:53.632Z,94628.13
2023-03-15T02:23:24.012Z,94634.91
2023-03-15T02:26:09.960Z,94641.47
2023-03-15T02:28:37.220Z,94645.25
2023-03-15T02:31:04.072Z,94648.59
2023-03-15T02:33:38.513Z,94652.03
2023-03-15T02:36:26.031Z,94658.81
2023-03-15T02:38:54.018Z,94659.81
2023-03-15T02:41:33.419Z,94651.47
2023-03-15T02:44:25.532Z,94667.72
2023-03-15T02:46:55.136Z,94666.75
2023-03-15T02:49:25.064Z,94682.63
2023-03-15T02:51:51.638Z,94690.50
2023-03-15T02:54:18.171Z,94702.16
2023-03-15T02:56:45.093Z,94724.06
2023-03-15T02:59:12.774Z,94737.47
2023-03-15T03:01:39.734Z,94753.03
2023-03-15T03:04:07.134Z,94754.53
2023-03-15T03:06:33.708Z,94771.38
2023-03-15T03:09:03.054Z,94777.91
2023-03-15T03:11:30.222Z,94791.56
2023-03-15T03:13:57.243Z,94799.78
2023-03-15T03:16:24.250Z,94805.56
2023-03-15T03:18:51.690Z,94819.88
2023-03-15T03:21:18.667Z,94818.06
2023-03-15T03:23:46.205Z,94830.94
2023-03-15T03:26:16.794Z,94838.91
2023-03-15T03:28:46.760Z,94852.13
2023-03-15T03:31:19.549Z,94858.38
2023-03-15T03:33:46.382Z,94864.00
2023-03-15T03:36:13.256Z,94870.66
2023-03-15T03:38:46.104Z,94889.09
2023-03-15T03:41:14.637Z,94895.44
2023-03-15T03:43:41.619Z,94899.94
2023-03-15T03:46:08.715Z,94904.16
2023-03-15T03:48:39.064Z,94909.81
2023-03-15T03:51:06.754Z,94923.59
2023-03-15T03:53:33.304Z,94937.44
2023-03-15T03:56:03.973Z,94941.31
2023-03-15T03:58:30.584Z,94946.81
2023-03-15T04:01:08.222Z,94959.47
2023-03-15T04:03:36.689Z,94955.72
2023-03-15T04:06:10.406Z,94960.28
2023-03-15T04:08:41.447Z,94969.00
2023-03-15T04:11:10.733Z,94979.53
2023-03-15T04:13:39.539Z,94987.44
2023-03-15T04:16:07.034Z,94986.56
2023-03-15T04:18:44.592Z,94994.81
2023-03-15T04:21:13.500Z,94994.75
2023-03-15T04:23:42.991Z,95012.59
2023-03-15T04:26:32.402Z,95005.72
2023-03-15T04:29:18.885Z,95018.44
2023-03-15T04:32:01.750Z,95020.28
2023-03-15T04:34:51.289Z,95025.84
2023-03-15T04:37:29.135Z,95041.56
2023-03-15T04:40:16.023Z,95045.75
2023-03-15T04:43:05.739Z,95045.38
2023-03-15T04:45:53.236Z,95054.50
2023-03-15T04:48:32.244Z,95051.00
2023-03-15T04:51:18.735Z,95066.25
2023-03-15T04:53:52.901Z,95062.59
2023-03-15T04:56:48.812Z,95073.16
2023-03-15T04:59:26.797Z,95084.66
2023-03-15T05:02:11.829Z,95085.09
2023-03-15T05:04:58.364Z,95096.63
2023-03-15T05:07:43.364Z,95094.13
2023-03-15T05:10:33.139Z,95102.03
2023-03-15T05:13:25.174Z,95103.91
2023-03-15T05:16:17.899Z,95114.16
2023-03-15T05:18:59.510Z,95117.06
2023-03-15T05:21:35.233Z,95117.16
2023-03-15T05:24:14.452Z,95123.69
2023-03-15T05:26:57.728Z,95133.19
2023-03-15T05:29:45.560Z,95138.44
2023-03-15T05:32:37.574Z,95140.28
2023-03-15T05:35:26.662Z,95146.56
2023-03-15T05:38:26.413Z,95144.91
2023-03-15T05:41:11.639Z,95151.72
2023-03-15T05:43:59.160Z,95159.78
2023-03-15T05:46:38.944Z,95162.59
2023-03-15T05:49:05.619Z,95163.53
2023-03-15T05:51:37.977Z,95178.25
2023-03-15T05:54:11.537Z,95177.41
2023-03-15T05:57:04.545Z,95183.25
2023-03-15T05:59:52.036Z,95190.06
2023-03-15T06:02:39.460Z,95194.03
2023-03-15T06:05:20.074Z,95206.22
2023-03-15T06:07:46.927Z,95207.00
2023-03-15T06:10:15.088Z,95213.47
2023-03-15T06:12:41.908Z,95215.56
2023-03-15T06:15:08.993Z,95215.47
2023-03-15T06:17:35.525Z,95218.78
2023-03-15T06:20:02.448Z,95226.09
2023-03-15T06:22:29.331Z,95215.84
2023-03-15T06:25:00.828Z,95233.88
2023-03-15T06:27:28.180Z,95233.50
2023-03-15T06:29:57.399Z,95229.88
2023-03-15T06:32:24.460Z,95234.19
2023-03-15T06:34:51.340Z,95236.69
2023-03-15T06:37:28.932Z,95239.19
2023-03-15T06:39:59.453Z,95238.50
2023-03-15T06:42:27.109Z,95242.31
2023-03-15T06:44:54.880Z,95241.56
2023-03-15T06:47:21.627Z,95250.34
2023-03-15T06:49:50.353Z,95256.59
2023-03-15T06:52:18.105Z,95258.00
2023-03-15T06:54:44.676Z,95263.34
2023-03-15T06:57:11.416Z,95255.66
2023-03-15T06:59:37.987Z,95264.16
2023-03-15T07:02:04.626Z,95262.72
2023-03-15T07:04:31.263Z,95264.91
2023-03-15T07:06:57.837Z,95260.34
2023-03-15T07:09:24.417Z,95269.00
2023-03-15T07:11:50.978Z,95263.44
2023-03-15T07:14:17.549Z,95273.28
2023-03-15T07:16:44.098Z,95274.81
2023-03-15T07:19:10.641Z,95277.63
2023-03-15T07:21:37.199Z,95285.06
2023-03-15T07:24:04.304Z,95287.41
2023-03-15T07:26:30.883Z,95286.34
2023-03-15T07:28:57.486Z,95295.41
2023-03-15T07:31:24.060Z,95292.66
2023-03-15T07:33:50.626Z,95302.00
2023-03-15T07:36:17.225Z,95284.06
2023-03-15T07:38:44.360Z,95294.00
2023-03-15T07:41:10.913Z,95297.91
2023-03-15T07:43:40.952Z,95299.41
2023-03-15T07:46:17.370Z,95297.63
2023-03-15T07:48:44.011Z,95293.72
2023-03-15T07:51:10.595Z,95299.31
2023-03-15T07:53:37.193Z,95304.38
2023-03-15T07:56:04.615Z,95296.72
2023-03-15T07:58:31.244Z,95303.19
2023-03-15T08:00:58.272Z,95300.81
2023-03-15T08:03:26.912Z,95298.09
2023-03-15T08:05:53.831Z,95294.44
2023-03-15T08:08:20.375Z,95294.94
2023-03-15T08:10:47.051Z,95293.13
2023-03-15T08:13:13.712Z,95291.06
2023-03-15T08:15:40.827Z,95292.03
2023-03-15T08:18:07.511Z,95289.97
2023-03-15T08:20:34.104Z,95294.09
2023-03-15T08:23:01.730Z,95287.78
2023-03-15T08:25:28.400Z,95292.91
2023-03-15T08:27:55.042Z,95291.28
2023-03-15T08:30:22.118Z,95295.59
2023-03-15T08:32:52.440Z,95292.06
2023-03-15T08:35:21.302Z,95292.06
2023-03-15T08:37:48.149Z,95296.53
2023-03-15T08:40:25.823Z,95293.00
2023-03-15T08:42:53.593Z,95296.03
2023-03-15T08:45:21.308Z,95290.91
2023-03-15T08:47:47.849Z,95284.16
2023-03-15T08:50:16.660Z,95292.00
2023-03-15T08:52:43.921Z,95286.91
2023-03-15T08:55:14.222Z,95273.66
2023-03-15T08:57:41.510Z,95281.38
2023-03-15T09:00:10.229Z,95285.53
2023-03-15T09:02:37.337Z,95281.88
2023-03-15T09:05:06.950Z,95278.91
2023-03-15T09:07:34.194Z,95282.72
2023-03-15T09:10:02.343Z,95288.22
2023-03-15T09:12:30.277Z,95286.00
2023-03-15T09:14:56.793Z,95288.13
2023-03-15T09:17:23.316Z,95285.81
2023-03-15T09:19:49.849Z,95282.63
2023-03-15T09:22:23.866Z,95291.81
2023-03-15T09:25:01.528Z,95284.66
2023-03-15T09:27:32.568Z,95289.56
2023-03-15T09:29:59.107Z,95277.16
2023-03-15T09:32:25.844Z,95300.34
2023-03-15T09:34:52.418Z,95293.75
2023-03-15T09:37:20.615Z,95291.03
2023-03-15T09:39:47.618Z,95297.47
2023-03-15T09:42:21.539Z,95288.59
2023-03-15T09:44:50.516Z,95283.59
2023-03-15T09:47:40.012Z,95292.53
2023-03-15T09:50:19.568Z,95286.06
2023-03-15T09:52:50.816Z,95288.91
2023-03-15T09:55:23.267Z,95294.91
2023-03-15T09:58:05.024Z,95305.56
2023-03-15T10:00:39.928Z,95311.00
2023-03-15T10:03:09.891Z,95308.47
2023-03-15T10:05:44.582Z,95320.69
2023-03-15T10:08:18.416Z,95324.88
2023-03-15T10:11:02.570Z,95323.97
2023-03-15T10:13:50.338Z,95328.53
2023-03-15T10:16:35.160Z,95314.09
2023-03-15T10:19:39.304Z,95310.91
2023-03-15T10:22:21.056Z,95307.59
2023-03-15T10:24:56.792Z,95306.81
2023-03-15T10:27:47.714Z,95300.28
2023-03-15T10:30:18.810Z,95312.19
2023-03-15T10:32:51.839Z,95308.94
2023-03-15T10:35:19.433Z,95296.06
2023-03-15T10:37:46.375Z,95305.66
2023-03-15T10:40:15.960Z,95293.88
2023-03-15T10:42:46.980Z,95301.81
2023-03-15T10:45:24.034Z,95293.22
2023-03-15T10:47:59.720Z,95300.00
2023-03-15T10:50:32.612Z,95302.34
2023-03-15T10:53:02.184Z,95288.47
2023-03-15T10:55:36.853Z,95292.81
2023-03-15T10:58:46.849Z,95280.81
2023-03-15T11:01:29.607Z,95284.22
2023-03-15T11:04:16.951Z,95279.81
2023-03-15T11:06:48.727Z,95284.66
2023-03-15T11:09:18.644Z,95277.47
2023-03-15T11:11:51.936Z,95277.97
2023-03-15T11:14:19.688Z,95276.03
2023-03-15T11:16:52.686Z,95276.75
2023-03-15T11:19:25.575Z,95271.13
2023-03-15T11:21:52.841Z,95271.59
2023-03-15T11:24:39.706Z,95287.81
2023-03-15T11:27:14.043Z,95279.38
2023-03-15T11:29:46.686Z,95289.06
2023-03-15T11:32:20.991Z,95285.47
2023-03-15T11:35:02.502Z,95265.09
2023-03-15T11:37:37.160Z,95259.88
2023-03-15T11:40:15.524Z,95254.81
2023-03-15T11:43:08.189Z,95260.03
2023-03-15T11:45:42.977Z,95258.06
2023-03-15T11:48:42.411Z,95265.81
2023-03-15T11:51:11.954Z,95255.28
2023-03-15T11:53:47.279Z,95261.28
2023-03-15T11:56:21.912Z,95252.88
2023-03-15T11:59:13.202Z,95251.63
2023-03-15T12:01:49.526Z,95254.91
2023-03-15T12:04:36.323Z,95262.47
2023-03-15T12:07:24.534Z,95253.72
2023-03-15T12:09:56.447Z,95259.34
2023-03-15T12:12:25.931Z,95255.22
2023-03-15T12:15:03.447Z,95256.69
2023-03-15T12:17:37.829Z,95256.03
2023-03-15T12:20:31.491Z,95241.72
2023-03-15T12:23:19.364Z,95251.09
2023-03-15T12:25:59.584Z,95244.69
2023-03-15T12:28:50.700Z,95244.25
2023-03-15T12:31:17.925Z,95238.47
2023-03-15T12:33:58.263Z,95242.66
2023-03-15T12:36:36.791Z,95225.97
2023-03-15T12:39:15.568Z,95225.34
2023-03-15T12:41:51.185Z,95210.16
2023-03-15T12:44:38.285Z,95215.50
2023-03-15T12:47:10.400Z,95208.81
2023-03-15T12:49:42.639Z,95213.31
2023-03-15T12:52:15.524Z,95212.66
2023-03-15T12:54:57.212Z,95209.31
2023-03-15T12:57:30.297Z,95215.06
2023-03-15T13:00:07.677Z,95210.81
2023-03-15T13:03:10.957Z,95210.38
2023-03-15T13:06:04.214Z,95217.94
2023-03-15T13:08:36.761Z,95222.50
2023-03-15T13:11:21.979Z,95226.00
2023-03-15T13:13:48.497Z,95230.72
2023-03-15T13:16:35.623Z,95232.56
2023-03-15T13:19:14.407Z,95230.69
2023-03-15T13:22:01.701Z,95226.66
2023-03-15T13:24:45.287Z,95232.66
2023-03-15T13:27:27.099Z,95232.09
2023-03-15T13:29:53.919Z,95228.41
2023-03-15T13:32:23.735Z,95215.13
2023-03-15T13:34:50.401Z,95214.66
2023-03-15T13:37:25.951Z,95210.06
2023-03-15T13:40:00.324Z,95215.38
2023-03-15T13:42:27.842Z,95237.44
2023-03-15T13:45:07.012Z,95235.00
2023-03-15T13:47:36.584Z,95226.94
2023-03-15T13:50:04.763Z,95237.94
2023-03-15T13:52:31.694Z,95234.66
2023-03-15T13:54:59.887Z,95225.13
2023-03-15T13:57:26.744Z,95244.91
2023-03-15T13:59:59.429Z,95241.78
2023-03-15T14:02:42.907Z,95242.41
2023-03-15T14:05:13.094Z,95242.22
2023-03-15T14:07:45.933Z,95231.28
2023-03-15T14:10:18.716Z,95233.28
2023-03-15T14:12:46.145Z,95225.94
2023-03-15T14:15:36.688Z,95234.19
2023-03-15T14:18:09.296Z,95241.53
2023-03-15T14:20:47.989Z,95250.19
2023-03-15T14:23:17.370Z,95254.88
2023-03-15T14:25:50.744Z,95247.22
2023-03-15T14:28:18.596Z,95251.13
2023-03-15T14:30:53.890Z,95244.31
2023-03-15T14:33:51.195Z,95267.38
2023-03-15T14:36:33.229Z,95268.69
2023-03-15T14:38:59.950Z,95254.41
2023-03-15T14:41:33.095Z,95251.88
2023-03-15T14:44:03.187Z,95250.75
2023-03-15T14:46:33.057Z,95250.47
2023-03-15T14:48:59.722Z,95251.69
2023-03-15T14:51:31.524Z,95247.19
2023-03-15T14:54:07.746Z,95247.03
2023-03-15T14:56:37.083Z,95248.41
2023-03-15T14:59:12.056Z,95246.00
2023-03-15T15:01:40.518Z,95238.13
2023-03-15T15:04:07.114Z,95233.31
2023-03-15T15:06:36.634Z,95234.25
2023-03-15T15:09:05.935Z,95240.44
2023-03-15T15:11:32.466Z,95236.66
2023-03-15T15:13:59.032Z,95229.56
2023-03-15T15:16:25.810Z,95234.97
2023-03-15T15:18:52.481Z,95231.69
2023-03-15T15:21:25.282Z,95242.97
2023-03-15T15:23:58.339Z,95244.28
2023-03-15T15:26:26.945Z,95242.19
2023-03-15T15:28:53.577Z,95236.63
2023-03-15T15:31:25.109Z,95241.53
2023-03-15T15:33:53.843Z,95244.13
2023-03-15T15:36:32.861Z,95245.19
2023-03-15T15:39:06.514Z,95240.84
2023-03-15T15:41:34.008Z,95238.91
2023-03-15T15:44:00.964Z,95238.06
2023-03-15T15:46:27.727Z,95242.19
2023-03-15T15:48:54.923Z,95249.84
2023-03-15T15:51:25.228Z,95247.84
2023-03-15T15:53:52.426Z,95252.31
2023-03-15T15:56:19.461Z,95250.22
2023-03-15T15:58:46.796Z,95258.41
2023-03-15T16:03:55.729Z,95259.84
2023-03-15T16:06:22.641Z,95269.97
2023-03-15T16:08:52.063Z,95276.50
2023-03-15T16:11:19.799Z,95284.31
2023-03-15T16:13:49.051Z,95290.72
2023-03-15T16:16:17.216Z,95295.00
2023-03-15T16:18:44.535Z,95295.06
2023-03-15T16:21:28.129Z,95299.88
2023-03-15T16:24:03.520Z,95295.44
2023-03-15T16:26:31.008Z,95294.50
2023-03-15T16:28:57.543Z,95301.13
2023-03-15T16:31:24.240Z,95304.44
2023-03-15T16:33:50.806Z,95306.31
2023-03-15T16:36:22.278Z,95317.22
2023-03-15T16:38:49.336Z,95331.22
2023-03-15T16:41:17.209Z,95327.44
2023-03-15T16:43:44.463Z,95340.88
2023-03-15T16:46:15.974Z,95346.66
2023-03-15T16:48:42.790Z,95343.13
2023-03-15T16:51:12.867Z,95351.78
2023-03-15T16:53:44.450Z,95346.47
2023-03-15T16:56:13.863Z,95352.03
2023-03-15T16:58:42.519Z,95354.94
2023-03-15T17:01:11.298Z,95362.75
2023-03-15T17:03:38.061Z,95367.97
2023-03-15T17:06:04.765Z,95375.41
2023-03-15T17:08:32.511Z,95381.22
2023-03-15T17:10:59.073Z,95374.56
2023-03-15T17:13:29.945Z,95388.06
2023-03-15T17:15:56.519Z,95401.97
2023-03-15T17:18:23.941Z,95402.63
2023-03-15T17:20:50.591Z,95393.81
2023-03-15T17:23:20.816Z,95404.00
2023-03-15T17:25:48.258Z,95404.69
2023-03-15T17:28:14.856Z,95405.81
2023-03-15T17:30:42.120Z,95404.84
2023-03-15T17:33:11.120Z,95411.59
2023-03-15T17:35:41.989Z,95412.69
2023-03-15T17:38:17.324Z,95413.81
2023-03-15T17:40:44.558Z,95418.06
2023-03-15T17:43:13.622Z,95418.19
2023-03-15T17:45:40.233Z,95420.53
2023-03-15T17:48:07.347Z,95425.06
2023-03-15T17:50:34.710Z,95428.78
2023-03-15T17:53:04.361Z,95427.84
2023-03-15T17:55:34.738Z,95424.53
2023-03-15T17:58:03.141Z,95427.97
2023-03-15T18:00:32.513Z,95431.38
2023-03-15T18:03:00.201Z,95441.84
2023-03-15T18:05:28.469Z,95438.69
2023-03-15T18:08:00.156Z,95437.16
2023-03-15T18:10:35.561Z,95436.06
2023-03-15T18:13:02.942Z,95439.09
2023-03-15T18:15:29.869Z,95450.38
2023-03-15T18:17:56.388Z,95460.53
2023-03-15T18:20:23.957Z,95453.41
2023-03-15T18:22:50.800Z,95461.50
2023-03-15T18:25:21.906Z,95458.72
2023-03-15T18:27:49.878Z,95464.38
2023-03-15T18:30:19.853Z,95474.13
2023-03-15T18:32:46.795Z,95469.06
2023-03-15T18:35:18.912Z,95470.31
2023-03-15T18:37:46.044Z,95477.44
2023-03-15T18:40:14.977Z,95475.63
2023-03-15T18:42:42.274Z,95477.28
2023-03-15T18:45:17.127Z,95478.13
2023-03-15T18:47:43.727Z,95485.94
2023-03-15T18:50:11.369Z,95480.03
2023-03-15T18:52:38.041Z,95493.91
2023-03-15T18:55:07.650Z,95493.63
2023-03-15T18:57:35.411Z,95497.78
2023-03-15T19:00:02.374Z,95499.69
2023-03-15T19:02:29.062Z,95503.53
2023-03-15T19:04:58.418Z,95506.97
2023-03-15T19:07:25.647Z,95502.97
2023-03-15T19:09:52.408Z,95511.06
2023-03-15T19:12:18.926Z,95506.00
2023-03-15T19:14:45.720Z,95512.00
2023-03-15T19:17:12.351Z,95505.09
2023-03-15T19:19:39.016Z,95510.34
2023-03-15T19:22:05.611Z,95507.63
2023-03-15T19:24:33.082Z,95516.22
2023-03-15T19:26:59.815Z,95516.56
2023-03-15T19:29:26.376Z,95516.69
2023-03-15T19:31:53.075Z,95512.84
2023-03-15T19:34:19.663Z,95508.00
2023-03-15T19:36:46.315Z,95515.66
2023-03-15T19:39:13.844Z,95516.56
2023-03-15T19:41:41.238Z,95515.91
2023-03-15T19:44:08.053Z,95518.00
2023-03-15T19:46:34.665Z,95521.97
2023-03-15T19:49:02.328Z,95528.75
2023-03-15T19:51:29.175Z,95527.19
2023-03-15T19:53:56.441Z,95530.22
2023-03-15T19:56:23.327Z,95538.03
2023-03-15T19:58:49.920Z,95537.69
2023-03-15T20:01:16.561Z,95534.88
2023-03-15T20:03:43.209Z,95542.94
2023-03-15T20:06:14.656Z,95538.69
2023-03-15T20:08:42.081Z,95550.94
2023-03-15T20:11:09.354Z,95546.88
2023-03-15T20:13:36.768Z,95551.63
2023-03-15T20:16:04.876Z,95555.47
2023-03-15T20:18:31.767Z,95553.84
2023-03-15T20:20:58.423Z,95564.03
2023-03-15T20:23:24.997Z,95559.06
2023-03-15T20:25:51.590Z,95561.09
2023-03-15T20:28:19.040Z,95560.59
2023-03-15T20:30:45.619Z,95572.59
2023-03-15T20:33:12.183Z,95575.06
2023-03-15T20:35:38.778Z,95574.88
2023-03-15T20:38:08.381Z,95575.84
2023-03-15T20:40:38.453Z,95583.03
2023-03-15T20:43:05.902Z,95593.66
2023-03-15T20:45:33.201Z,95587.53
2023-03-15T20:48:00.873Z,95588.22
2023-03-15T20:50:27.426Z,95586.44
2023-03-15T20:52:53.953Z,95589.44
2023-03-15T20:55:21.117Z,95590.19
2023-03-15T20:57:47.685Z,95590.66
2023-03-15T21:00:18.294Z,95594.44
2023-03-15T21:02:46.335Z,95606.34
2023-03-15T21:05:13.154Z,95603.63
2023-03-15T21:07:41.126Z,95595.69
2023-03-15T21:10:09.778Z,95587.59
2023-03-15T21:12:36.490Z,95592.06
2023-03-15T21:15:03.994Z,95586.72
2023-03-15T21:17:30.640Z,95590.91
2023-03-15T21:19:57.839Z,95590.66
2023-03-15T21:22:24.518Z,95584.88
2023-03-15T21:24:55.944Z,95583.44
2023-03-15T21:27:26.080Z,95580.72
2023-03-15T21:29:53.170Z,95587.38
2023-03-15T21:32:19.919Z,95582.88
2023-03-15T21:34:46.538Z,95584.78
2023-03-15T21:37:13.115Z,95581.56
2023-03-15T21:39:39.755Z,95590.66
2023-03-15T21:42:06.450Z,95584.41
2023-03-15T21:44:37.331Z,95590.66
2023-03-15T21:47:06.745Z,95591.13
2023-03-15T21:49:33.492Z,95596.09
2023-03-15T21:52:00.333Z,95590.66
2023-03-15T21:54:27.144Z,95591.81
2023-03-15T21:56:53.669Z,95591.38
2023-03-15T21:59:27.492Z,95594.19
2023-03-15T22:01:54.722Z,95590.66
2023-03-15T22:04:22.033Z,95594.44
2023-03-15T22:06:48.577Z,95590.50
2023-03-15T22:09:15.157Z,95590.13
2023-03-15T22:11:41.686Z,95588.66
2023-03-15T22:14:08.207Z,95585.47
2023-03-15T22:16:35.146Z,95591.72
2023-03-15T22:19:03.444Z,95605.34
2023-03-15T22:21:30.922Z,95600.38
2023-03-15T22:23:57.739Z,95590.78
2023-03-15T22:26:24.622Z,95595.16
2023-03-15T22:28:51.622Z,95589.84
2023-03-15T22:31:18.419Z,95588.97
2023-03-15T22:33:45.124Z,95585.53
2023-03-15T22:36:11.633Z,95591.06
2023-03-15T22:38:38.177Z,95596.28
2023-03-15T22:41:10.339Z,95602.34
2023-03-15T22:43:38.823Z,95605.41
2023-03-15T22:46:05.481Z,95601.66
2023-03-15T22:48:32.118Z,95600.72
2023-03-15T22:51:08.000Z,95597.97
2023-03-15T22:53:34.606Z,95611.00
2023-03-15T22:56:01.218Z,95604.47
2023-03-15T22:58:27.788Z,95597.59
2023-03-15T23:00:55.104Z,95601.91
2023-03-15T23:03:21.929Z,95605.00
2023-03-15T23:05:48.433Z,95595.81
2023-03-15T23:08:15.152Z,95602.25
2023-03-15T23:10:42.364Z,95601.41
2023-03-15T23:13:08.900Z,95601.91
2023-03-15T23:15:35.733Z,95607.72
2023-03-15T23:18:02.382Z,95598.31
2023-03-15T23:20:29.351Z,95599.25
2023-03-15T23:22:56.540Z,95606.22
2023-03-15T23:25:24.982Z,95600.44
2023-03-15T23:27:51.605Z,95603.16
2023-03-15T23:30:18.487Z,95604.00
2023-03-15T23:32:45.446Z,95604.38
2023-03-15T23:35:12.634Z,95611.44
2023-03-15T23:37:39.623Z,95624.19
2023-03-15T23:40:11.376Z,95620.28
2023-03-15T23:42:38.015Z,95612.16
2023-03-15T23:45:08.432Z,95601.81
2023-03-15T23:47:35.290Z,95612.47
2023-03-15T23:50:04.685Z,95621.72
2023-03-15T23:52:31.381Z,95624.56
2023-03-15T23:54:57.911Z,95617.00
2023-03-15T23:57:24.435Z,95612.03
2023-03-15T23:59:51.053Z,95604.81
